Cotes De La Manche — FQBE — position and weather

sailwx.info

Track history (hours):
 
Tides and Currents Weather Stations Pressure Air Temp Water Temp Dewpoint Dewpoint Depression Visibility Wind Speed Wind Dir Waves Ship Positions

Cotes De La Manche

Last reported at 2014-Aug-31 09:33 UTC. Time now 2014-Aug-31 10:32 UTC.
Position N 46°30' W 001°48'.

Length 25 m; draft 3.7 m.

Type: Other ship. MMSI: 227091000.

Date/timePositionNaut miles runAvg speedWind from/ knotsBaromVisibWave heightAir tempDewpointWater temp
2014-Aug-31 09:33N 46°30' W 001°48'0 0.0
2014-Aug-31 08:33N 46°30' W 001°48'0 0.0
2014-Aug-31 07:33N 46°30' W 001°48'0 0.0
2014-Aug-31 06:33N 46°30' W 001°48'0 0.0
2014-Aug-31 05:33N 46°30' W 001°48'0 0.0
2014-Aug-31 04:33N 46°30' W 001°48'0 0.0
2014-Aug-31 03:33N 46°30' W 001°48'0 0.0
2014-Aug-31 02:33N 46°30' W 001°48'0 0.0
2014-Aug-31 01:33N 46°30' W 001°48'0 0.0
2014-Aug-31 00:33N 46°30' W 001°48'0 0.0
2014-Aug-30 23:33N 46°30' W 001°48'0 0.0
2014-Aug-30 22:33N 46°30' W 001°48'0 0.0
2014-Aug-30 21:33N 46°30' W 001°48'0 0.0
2014-Aug-30 20:33N 46°30' W 001°48'0 0.0
2014-Aug-30 19:33N 46°30' W 001°48'0 0.0
2014-Aug-30 18:33N 46°30' W 001°48'0 0.0
2014-Aug-30 17:33N 46°30' W 001°48'0 0.0
2014-Aug-30 16:33N 46°30' W 001°48'0 0.0
2014-Aug-30 15:33N 46°30' W 001°48'0 0.0
2014-Aug-30 14:34N 46°30' W 001°48'0 0.0
2014-Aug-30 13:33N 46°30' W 001°48'0 0.0
2014-Aug-30 12:33N 46°30' W 001°48'0 0.0
2014-Aug-30 11:33N 46°30' W 001°48'0 0.0
2014-Aug-30 10:33N 46°30' W 001°48'0 0.0
2014-Aug-30 09:33N 46°30' W 001°48'0 0.0
2014-Aug-30 08:33N 46°30' W 001°48'0 0.0
2014-Aug-30 07:33N 46°30' W 001°48'0 0.0
2014-Aug-30 06:33N 46°30' W 001°48'0 0.0
2014-Aug-30 05:33N 46°30' W 001°48'0 0.0
2014-Aug-30 04:33N 46°30' W 001°48'0 0.0
2014-Aug-30 03:33N 46°30' W 001°48'0 0.0
2014-Aug-30 02:33N 46°30' W 001°48'0 0.0
2014-Aug-30 01:33N 46°30' W 001°48'0 0.0
2014-Aug-30 00:33N 46°30' W 001°48'0 0.0
2014-Aug-29 23:33N 46°30' W 001°48'0 0.0
2014-Aug-29 22:33N 46°30' W 001°48'0 0.0
2014-Aug-29 21:33N 46°30' W 001°48'0 0.0
2014-Aug-29 20:33N 46°30' W 001°48'0 0.0
2014-Aug-29 19:33N 46°30' W 001°48'0 0.0
2014-Aug-29 18:33N 46°30' W 001°48'0 0.0
2014-Aug-29 17:33N 46°30' W 001°48'0 0.0
2014-Aug-29 16:33N 46°30' W 001°48'0 0.0
2014-Aug-29 15:33N 46°30' W 001°48'0 0.0
2014-Aug-29 14:33N 46°30' W 001°48'0 0.0
2014-Aug-29 13:33N 46°30' W 001°48'0 0.0
2014-Aug-29 12:33N 46°30' W 001°48'0 0.0
2014-Aug-29 11:33N 46°30' W 001°48'0 0.0
2014-Aug-29 10:33N 46°30' W 001°48'0 0.0
2014-Aug-29 09:33N 46°30' W 001°48'0 0.0
2014-Aug-29 08:33N 46°30' W 001°48'0 0.1
2014-Aug-29 07:33N 46°30' W 001°47'0 0.0
2014-Aug-29 06:33N 46°30' W 001°47'0 0.0
2014-Aug-29 05:33N 46°30' W 001°47'1 1.1
2014-Aug-29 04:33N 46°29' W 001°47'0 0.0
2014-Aug-29 03:33N 46°29' W 001°47'0 0.0
2014-Aug-29 02:33N 46°29' W 001°47'0 0.0
2014-Aug-29 01:33N 46°29' W 001°47'0 0.0
2014-Aug-29 00:33N 46°29' W 001°47'0 0.0
2014-Aug-28 23:33N 46°29' W 001°47'0 0.0
2014-Aug-28 22:33N 46°29' W 001°47'0 0.0
2014-Aug-28 21:33N 46°29' W 001°47'0 0.0
2014-Aug-28 20:33N 46°29' W 001°47'0 0.0
2014-Aug-28 19:33N 46°29' W 001°47'5 5.2
2014-Aug-28 18:33N 46°24' W 001°45'  
2014-Aug-25 15:33N 46°19' W 001°43'10 9.9
2014-Aug-25 14:33N 46°29' W 001°47'1 1.4
2014-Aug-25 13:33N 46°30' W 001°48'0 0.0
2014-Aug-25 12:33N 46°30' W 001°48'0 0.0
2014-Aug-25 11:32N 46°30' W 001°48'0 0.0
2014-Aug-25 10:32N 46°30' W 001°48'0 0.0
2014-Aug-25 09:32N 46°30' W 001°48'0 0.0
2014-Aug-25 08:31N 46°30' W 001°48'0 0.0
2014-Aug-25 07:31N 46°30' W 001°48'0 0.0
2014-Aug-25 06:31N 46°30' W 001°48'0 0.0
2014-Aug-25 05:31N 46°30' W 001°48'0 0.0
2014-Aug-25 04:31N 46°30' W 001°48'0 0.4
2014-Aug-25 03:33N 46°29' W 001°48'6 6.1
2014-Aug-25 02:33N 46°24' W 001°45'5 5.3
2014-Aug-25 01:33N 46°19' W 001°42'  
2014-Aug-22 15:32N 46°15' W 001°40'1010.1
2014-Aug-22 14:33N 46°25' W 001°44'6 5.7
2014-Aug-22 13:33N 46°30' W 001°48'0 0.0
2014-Aug-22 12:33N 46°30' W 001°48'0 0.0
2014-Aug-22 11:33N 46°30' W 001°48'0 0.0
2014-Aug-22 10:33N 46°30' W 001°48'0 0.0
2014-Aug-22 09:33N 46°30' W 001°48'0 0.0
2014-Aug-22 08:33N 46°30' W 001°48'0 0.0
2014-Aug-22 07:33N 46°30' W 001°48'0 0.0
2014-Aug-22 06:33N 46°30' W 001°48'0 0.0
2014-Aug-22 05:33N 46°30' W 001°48'0 0.0
2014-Aug-22 04:33N 46°30' W 001°48'0 0.0
2014-Aug-22 03:33N 46°30' W 001°48'0 0.0
2014-Aug-22 02:33N 46°30' W 001°48'0 0.0
2014-Aug-22 01:33N 46°30' W 001°48'0 0.0
2014-Aug-22 00:33N 46°30' W 001°48'0 0.0
2014-Aug-21 23:33N 46°30' W 001°48'0 0.0
2014-Aug-21 22:33N 46°30' W 001°48'0 0.0
2014-Aug-21 21:33N 46°30' W 001°48'0 0.0
2014-Aug-21 20:33N 46°30' W 001°48'0 0.0
2014-Aug-21 19:33N 46°30' W 001°48'0 0.0
2014-Aug-21 18:33N 46°30' W 001°48'0 0.0
2014-Aug-21 17:33N 46°30' W 001°48'0 0.0
2014-Aug-21 16:33N 46°30' W 001°48'0 0.0
2014-Aug-21 15:33N 46°30' W 001°48'0 0.0
2014-Aug-21 14:33N 46°30' W 001°48'0 0.0
2014-Aug-21 13:33N 46°30' W 001°48'0 0.0
2014-Aug-21 12:33N 46°30' W 001°48'0 0.0
2014-Aug-21 11:33N 46°30' W 001°48'0 0.0
2014-Aug-21 10:33N 46°30' W 001°48'0 0.0
2014-Aug-21 09:33N 46°30' W 001°48'  
Track history (hours):
 
Tides and Currents Weather Stations Pressure Air Temp Water Temp Dewpoint Dewpoint Depression Visibility Wind Speed Wind Dir Waves Ship Positions

Cotes De La Manche

Last reported at 2014-Aug-31 09:33 UTC. Time now 2014-Aug-31 10:32 UTC.
Position N 46°30' W 001°48'.

Length 25 m; draft 3.7 m.

Type: Other ship. MMSI: 227091000.

Date/timePositionNaut miles runAvg speedWind from/ knotsBaromVisibWave heightAir tempDewpointWater temp
2014-Aug-31 09:33N 46°30' W 001°48'0 0.0
2014-Aug-31 08:33N 46°30' W 001°48'0 0.0
2014-Aug-31 07:33N 46°30' W 001°48'0 0.0
2014-Aug-31 06:33N 46°30' W 001°48'0 0.0
2014-Aug-31 05:33N 46°30' W 001°48'0 0.0
2014-Aug-31 04:33N 46°30' W 001°48'0 0.0
2014-Aug-31 03:33N 46°30' W 001°48'0 0.0
2014-Aug-31 02:33N 46°30' W 001°48'0 0.0
2014-Aug-31 01:33N 46°30' W 001°48'0 0.0
2014-Aug-31 00:33N 46°30' W 001°48'0 0.0
2014-Aug-30 23:33N 46°30' W 001°48'0 0.0
2014-Aug-30 22:33N 46°30' W 001°48'0 0.0
2014-Aug-30 21:33N 46°30' W 001°48'0 0.0
2014-Aug-30 20:33N 46°30' W 001°48'0 0.0
2014-Aug-30 19:33N 46°30' W 001°48'0 0.0
2014-Aug-30 18:33N 46°30' W 001°48'0 0.0
2014-Aug-30 17:33N 46°30' W 001°48'0 0.0
2014-Aug-30 16:33N 46°30' W 001°48'0 0.0
2014-Aug-30 15:33N 46°30' W 001°48'0 0.0
2014-Aug-30 14:34N 46°30' W 001°48'0 0.0
2014-Aug-30 13:33N 46°30' W 001°48'0 0.0
2014-Aug-30 12:33N 46°30' W 001°48'0 0.0
2014-Aug-30 11:33N 46°30' W 001°48'0 0.0
2014-Aug-30 10:33N 46°30' W 001°48'0 0.0
2014-Aug-30 09:33N 46°30' W 001°48'0 0.0
2014-Aug-30 08:33N 46°30' W 001°48'0 0.0
2014-Aug-30 07:33N 46°30' W 001°48'0 0.0
2014-Aug-30 06:33N 46°30' W 001°48'0 0.0
2014-Aug-30 05:33N 46°30' W 001°48'0 0.0
2014-Aug-30 04:33N 46°30' W 001°48'0 0.0
2014-Aug-30 03:33N 46°30' W 001°48'0 0.0
2014-Aug-30 02:33N 46°30' W 001°48'0 0.0
2014-Aug-30 01:33N 46°30' W 001°48'0 0.0
2014-Aug-30 00:33N 46°30' W 001°48'0 0.0
2014-Aug-29 23:33N 46°30' W 001°48'0 0.0
2014-Aug-29 22:33N 46°30' W 001°48'0 0.0
2014-Aug-29 21:33N 46°30' W 001°48'0 0.0
2014-Aug-29 20:33N 46°30' W 001°48'0 0.0
2014-Aug-29 19:33N 46°30' W 001°48'0 0.0
2014-Aug-29 18:33N 46°30' W 001°48'0 0.0
2014-Aug-29 17:33N 46°30' W 001°48'0 0.0
2014-Aug-29 16:33N 46°30' W 001°48'0 0.0
2014-Aug-29 15:33N 46°30' W 001°48'0 0.0
2014-Aug-29 14:33N 46°30' W 001°48'0 0.0
2014-Aug-29 13:33N 46°30' W 001°48'0 0.0
2014-Aug-29 12:33N 46°30' W 001°48'0 0.0
2014-Aug-29 11:33N 46°30' W 001°48'0 0.0
2014-Aug-29 10:33N 46°30' W 001°48'0 0.0
2014-Aug-29 09:33N 46°30' W 001°48'0 0.0
2014-Aug-29 08:33N 46°30' W 001°48'0 0.1
2014-Aug-29 07:33N 46°30' W 001°47'0 0.0
2014-Aug-29 06:33N 46°30' W 001°47'0 0.0
2014-Aug-29 05:33N 46°30' W 001°47'1 1.1
2014-Aug-29 04:33N 46°29' W 001°47'0 0.0
2014-Aug-29 03:33N 46°29' W 001°47'0 0.0
2014-Aug-29 02:33N 46°29' W 001°47'0 0.0
2014-Aug-29 01:33N 46°29' W 001°47'0 0.0
2014-Aug-29 00:33N 46°29' W 001°47'0 0.0
2014-Aug-28 23:33N 46°29' W 001°47'0 0.0
2014-Aug-28 22:33N 46°29' W 001°47'0 0.0
2014-Aug-28 21:33N 46°29' W 001°47'0 0.0
2014-Aug-28 20:33N 46°29' W 001°47'0 0.0
2014-Aug-28 19:33N 46°29' W 001°47'5 5.2
2014-Aug-28 18:33N 46°24' W 001°45'  
2014-Aug-25 15:33N 46°19' W 001°43'10 9.9
2014-Aug-25 14:33N 46°29' W 001°47'1 1.4
2014-Aug-25 13:33N 46°30' W 001°48'0 0.0
2014-Aug-25 12:33N 46°30' W 001°48'0 0.0
2014-Aug-25 11:32N 46°30' W 001°48'0 0.0
2014-Aug-25 10:32N 46°30' W 001°48'0 0.0
2014-Aug-25 09:32N 46°30' W 001°48'0 0.0
2014-Aug-25 08:31N 46°30' W 001°48'0 0.0
2014-Aug-25 07:31N 46°30' W 001°48'0 0.0
2014-Aug-25 06:31N 46°30' W 001°48'0 0.0
2014-Aug-25 05:31N 46°30' W 001°48'0 0.0
2014-Aug-25 04:31N 46°30' W 001°48'0 0.4
2014-Aug-25 03:33N 46°29' W 001°48'6 6.1
2014-Aug-25 02:33N 46°24' W 001°45'5 5.3
2014-Aug-25 01:33N 46°19' W 001°42'  
2014-Aug-22 15:32N 46°15' W 001°40'1010.1
2014-Aug-22 14:33N 46°25' W 001°44'6 5.7
2014-Aug-22 13:33N 46°30' W 001°48'0 0.0
2014-Aug-22 12:33N 46°30' W 001°48'0 0.0
2014-Aug-22 11:33N 46°30' W 001°48'0 0.0
2014-Aug-22 10:33N 46°30' W 001°48'0 0.0
2014-Aug-22 09:33N 46°30' W 001°48'0 0.0
2014-Aug-22 08:33N 46°30' W 001°48'0 0.0
2014-Aug-22 07:33N 46°30' W 001°48'0 0.0
2014-Aug-22 06:33N 46°30' W 001°48'0 0.0
2014-Aug-22 05:33N 46°30' W 001°48'0 0.0
2014-Aug-22 04:33N 46°30' W 001°48'0 0.0
2014-Aug-22 03:33N 46°30' W 001°48'0 0.0
2014-Aug-22 02:33N 46°30' W 001°48'0 0.0
2014-Aug-22 01:33N 46°30' W 001°48'0 0.0
2014-Aug-22 00:33N 46°30' W 001°48'0 0.0
2014-Aug-21 23:33N 46°30' W 001°48'0 0.0
2014-Aug-21 22:33N 46°30' W 001°48'0 0.0
2014-Aug-21 21:33N 46°30' W 001°48'0 0.0
2014-Aug-21 20:33N 46°30' W 001°48'0 0.0
2014-Aug-21 19:33N 46°30' W 001°48'0 0.0
2014-Aug-21 18:33N 46°30' W 001°48'0 0.0
2014-Aug-21 17:33N 46°30' W 001°48'0 0.0
2014-Aug-21 16:33N 46°30' W 001°48'0 0.0
2014-Aug-21 15:33N 46°30' W 001°48'0 0.0
2014-Aug-21 14:33N 46°30' W 001°48'0 0.0
2014-Aug-21 13:33N 46°30' W 001°48'0 0.0
2014-Aug-21 12:33N 46°30' W 001°48'0 0.0
2014-Aug-21 11:33N 46°30' W 001°48'0 0.0
2014-Aug-21 10:33N 46°30' W 001°48'0 0.0
2014-Aug-21 09:33N 46°30' W 001°48'  

Dump ship's entire track history